KRFD/RFD METAR and TAF weather

Enter ICAO airport designator
Station Type Date Time Source
KRFD METAR 2019/01/21 21:54 UTC NOAA

KRFD 212154Z 14012KT 10SM BKN110 OVC250 M10/M16 A3042 RMK AO2 SLP321 T11001156


Station Type Date Time Source
KRFD Decoded METAR 2019/01/21 21:54 UTC NOAA

GREATER ROCKFORD AIRPORT, IL, United States (KRFD) 42-12N 89-06W 221M
Jan 21, 2019 - 04:54 PM EST / 2019.01.21 2154 UTC
Wind: from the SE (140 degrees) at 14 MPH (12 KT):0
Visibility: 10 mile(s):0
Sky conditions: overcast
Temperature: 14.0 F (-10.0 C)
Windchill: 0 F (-18 C):1
Dew Point: 3.9 F (-15.6 C)
Relative Humidity: 63%
Pressure (altimeter): 30.42 in. Hg (1030 hPa)
ob: KRFD 212154Z 14012KT 10SM BKN110 OVC250 M10/M16 A3042 RMK AO2 SLP321 T11001156
cycle: 22

Station Type Date Time Source
KRFD TAF 2019/01/21 21:59 UTC NOAA

TAF
AMD KRFD 212059Z 2121/2218 13013G19KT P6SM SCT080 BKN120
FM220800 14014KT P6SM BKN150 WS020/20045KT
FM221200 16014G22KT P6SM SCT020 OVC040
FM221500 17015G24KT 3SM -FZDZSN OVC018


Example: see airport list